createdAt,value
2017-06-21T00:02:07.431Z,15.70
2017-06-21T00:04:35.790Z,15.70
2017-06-21T00:07:04.886Z,15.60
2017-06-21T00:09:34.083Z,15.60
2017-06-21T00:12:03.185Z,15.50
2017-06-21T00:14:31.664Z,15.50
2017-06-21T00:17:00.039Z,15.50
2017-06-21T00:19:28.417Z,15.50
2017-06-21T00:21:56.768Z,15.40
2017-06-21T00:24:25.087Z,15.40
2017-06-21T00:26:54.112Z,15.40
2017-06-21T00:29:22.434Z,15.30
2017-06-21T00:31:51.498Z,15.30
2017-06-21T00:34:19.827Z,15.20
2017-06-21T00:36:48.182Z,15.20
2017-06-21T00:39:17.388Z,15.10
2017-06-21T00:41:46.485Z,15.10
2017-06-21T00:44:14.782Z,15.00
2017-06-21T00:46:43.139Z,15.10
2017-06-21T00:49:12.635Z,15.10
2017-06-21T00:51:41.738Z,15.00
2017-06-21T00:54:10.116Z,14.90
2017-06-21T00:56:38.399Z,15.00
2017-06-21T00:59:06.711Z,15.00
2017-06-21T01:01:35.130Z,14.90
2017-06-21T01:04:04.198Z,14.90
2017-06-21T01:06:32.715Z,14.80
2017-06-21T01:09:01.818Z,14.80
2017-06-21T01:11:30.899Z,14.80
2017-06-21T01:13:59.278Z,14.70
2017-06-21T01:16:27.664Z,14.70
2017-06-21T01:18:56.959Z,14.70
2017-06-21T01:21:26.023Z,14.60
2017-06-21T01:23:54.338Z,14.50
2017-06-21T01:26:22.665Z,14.50
2017-06-21T01:28:50.992Z,14.50
2017-06-21T01:31:20.171Z,14.50
2017-06-21T01:33:48.614Z,14.40
2017-06-21T01:36:16.922Z,14.50
2017-06-21T01:38:45.306Z,14.50
2017-06-21T01:41:13.606Z,14.50
2017-06-21T01:43:42.680Z,14.40
2017-06-21T01:46:11.006Z,14.30
2017-06-21T01:48:39.439Z,14.40
2017-06-21T01:51:07.718Z,14.40
2017-06-21T01:53:36.783Z,14.20
2017-06-21T01:56:05.114Z,14.10
2017-06-21T01:58:33.415Z,14.10
2017-06-21T02:01:01.951Z,14.10
2017-06-21T02:03:31.107Z,14.00
2017-06-21T02:05:59.532Z,13.90
2017-06-21T02:08:28.603Z,13.80
2017-06-21T02:10:57.723Z,13.80
2017-06-21T02:13:26.916Z,13.80
2017-06-21T02:15:55.986Z,13.80
2017-06-21T02:18:24.488Z,13.70
2017-06-21T02:20:53.562Z,13.70
2017-06-21T02:23:22.680Z,13.60
2017-06-21T02:25:51.880Z,13.60
2017-06-21T02:28:20.963Z,13.60
2017-06-21T02:30:49.268Z,13.50
2017-06-21T02:33:17.690Z,13.60
2017-06-21T02:35:46.003Z,13.60
2017-06-21T02:38:15.099Z,13.50
2017-06-21T02:40:44.397Z,13.50
2017-06-21T02:43:13.507Z,13.40
2017-06-21T02:45:41.867Z,13.40
2017-06-21T02:48:10.294Z,13.40
2017-06-21T02:50:38.630Z,13.40
2017-06-21T02:53:06.960Z,13.40
2017-06-21T02:55:35.275Z,13.40
2017-06-21T02:58:05.195Z,13.40
2017-06-21T03:00:34.299Z,13.30
2017-06-21T03:03:02.726Z,13.20
2017-06-21T03:05:31.143Z,13.30
2017-06-21T03:07:59.506Z,13.20
2017-06-21T03:10:27.856Z,13.20
2017-06-21T03:12:56.162Z,13.10
2017-06-21T03:15:32.194Z,13.10
2017-06-21T03:18:00.507Z,13.00
2017-06-21T03:20:28.795Z,13.00
2017-06-21T03:22:57.886Z,13.00
2017-06-21T03:25:26.942Z,13.10
2017-06-21T03:27:56.045Z,13.10
2017-06-21T03:30:24.451Z,13.00
2017-06-21T03:32:52.932Z,13.10
2017-06-21T03:35:22.024Z,13.10
2017-06-21T03:37:51.116Z,13.10
2017-06-21T03:40:20.186Z,13.10
2017-06-21T03:42:48.846Z,13.10
2017-06-21T03:45:17.176Z,13.10
2017-06-21T03:47:45.637Z,13.10
2017-06-21T03:50:13.971Z,13.20
2017-06-21T03:52:42.899Z,13.40
2017-06-21T03:55:11.219Z,13.50
2017-06-21T03:57:39.514Z,13.60
2017-06-21T04:00:07.847Z,13.70
2017-06-21T04:02:36.394Z,13.70
2017-06-21T04:05:04.971Z,13.70
2017-06-21T04:07:33.438Z,13.80
2017-06-21T04:10:01.767Z,13.80
2017-06-21T04:12:30.864Z,13.80
2017-06-21T04:14:59.923Z,13.80
2017-06-21T04:17:28.438Z,13.80
2017-06-21T04:19:57.536Z,14.00
2017-06-21T04:22:25.962Z,13.90
2017-06-21T04:24:54.291Z,14.10
2017-06-21T04:27:23.337Z,14.10
2017-06-21T04:29:51.758Z,14.00
2017-06-21T04:32:20.038Z,14.00
2017-06-21T04:34:49.327Z,14.00
2017-06-21T04:37:19.114Z,14.10
2017-06-21T04:39:47.427Z,14.00
2017-06-21T04:42:16.694Z,14.30
2017-06-21T04:44:45.110Z,14.20
2017-06-21T04:47:14.172Z,14.20
2017-06-21T04:49:42.491Z,14.20
2017-06-21T04:52:11.591Z,14.10
2017-06-21T04:54:40.042Z,14.10
2017-06-21T04:57:09.119Z,14.10
2017-06-21T04:59:37.400Z,14.00
2017-06-21T05:02:06.505Z,14.20
2017-06-21T05:04:35.616Z,14.30
2017-06-21T05:07:04.093Z,14.30
2017-06-21T05:09:33.184Z,14.50
2017-06-21T05:12:02.542Z,14.60
2017-06-21T05:14:30.852Z,14.50
2017-06-21T05:16:59.231Z,14.60
2017-06-21T05:19:27.557Z,14.60
2017-06-21T05:21:55.850Z,14.70
2017-06-21T05:24:24.277Z,14.70
2017-06-21T05:26:53.467Z,14.80
2017-06-21T05:29:22.797Z,14.90
2017-06-21T05:31:51.094Z,14.90
2017-06-21T05:34:19.389Z,14.90
2017-06-21T05:36:47.979Z,15.00
2017-06-21T05:39:17.238Z,15.00
2017-06-21T05:41:46.300Z,15.10
2017-06-21T05:44:15.571Z,15.10
2017-06-21T05:46:43.970Z,15.00
2017-06-21T05:49:13.042Z,15.20
2017-06-21T05:51:41.547Z,15.10
2017-06-21T05:54:10.678Z,15.30
2017-06-21T05:56:39.011Z,15.20
2017-06-21T05:59:07.318Z,15.30
2017-06-21T06:01:35.658Z,15.40
2017-06-21T06:04:04.058Z,15.40
2017-06-21T06:06:33.166Z,15.70
2017-06-21T06:09:01.534Z,15.60
2017-06-21T06:11:30.030Z,15.80
2017-06-21T06:13:58.626Z,15.90
2017-06-21T06:16:27.077Z,15.90
2017-06-21T06:18:56.162Z,16.10
2017-06-21T06:21:24.752Z,16.00
2017-06-21T06:23:53.084Z,16.20
2017-06-21T06:26:21.413Z,16.20
2017-06-21T06:28:49.780Z,16.30
2017-06-21T06:31:19.087Z,16.40
2017-06-21T06:33:47.568Z,16.40
2017-06-21T06:36:16.019Z,16.30
2017-06-21T06:38:44.423Z,16.30
2017-06-21T06:41:12.900Z,16.30
2017-06-21T06:43:41.266Z,16.40
2017-06-21T06:46:09.567Z,16.40
2017-06-21T06:48:38.649Z,16.40
2017-06-21T06:51:07.722Z,16.50
2017-06-21T06:53:37.026Z,16.60
2017-06-21T06:56:06.111Z,16.70
2017-06-21T06:58:34.407Z,16.70
2017-06-21T07:01:03.614Z,17.00
2017-06-21T07:03:31.955Z,16.90
2017-06-21T07:06:00.319Z,17.10
2017-06-21T07:08:28.638Z,17.20
2017-06-21T07:10:57.131Z,17.20
2017-06-21T07:13:25.442Z,17.10
2017-06-21T07:15:53.783Z,17.10
2017-06-21T07:18:22.871Z,17.30
2017-06-21T07:20:52.678Z,17.30
2017-06-21T07:23:21.000Z,17.30
2017-06-21T07:25:50.056Z,17.40
2017-06-21T07:28:19.151Z,17.50
2017-06-21T07:30:47.409Z,17.40
2017-06-21T07:33:15.751Z,17.50
2017-06-21T07:35:44.176Z,17.60
2017-06-21T07:38:13.266Z,17.80
2017-06-21T07:40:42.388Z,17.90
2017-06-21T07:43:10.946Z,17.80
2017-06-21T07:45:39.327Z,18.00
2017-06-21T07:48:07.621Z,18.00
2017-06-21T07:50:35.983Z,18.20
2017-06-21T07:53:05.074Z,18.40
2017-06-21T07:55:34.274Z,18.50
2017-06-21T07:58:03.398Z,18.60
2017-06-21T08:00:31.842Z,18.50
2017-06-21T08:03:01.153Z,18.50
2017-06-21T08:05:29.473Z,18.50
2017-06-21T08:07:57.818Z,18.60
2017-06-21T08:10:26.906Z,18.70
2017-06-21T08:12:55.279Z,18.60
2017-06-21T08:15:23.731Z,18.70
2017-06-21T08:17:52.955Z,18.70
2017-06-21T08:20:22.013Z,18.80
2017-06-21T08:22:50.311Z,18.70
2017-06-21T08:25:19.402Z,18.90
2017-06-21T08:27:47.804Z,18.80
2017-06-21T08:30:17.398Z,18.90
2017-06-21T08:32:45.895Z,19.00
2017-06-21T08:35:14.983Z,19.10
2017-06-21T08:37:44.175Z,19.20
2017-06-21T08:40:12.608Z,19.10
2017-06-21T08:42:40.930Z,19.20
2017-06-21T08:45:09.374Z,19.30
2017-06-21T08:47:38.090Z,19.40
2017-06-21T08:50:07.201Z,19.60
2017-06-21T08:52:35.579Z,19.60
2017-06-21T08:55:04.049Z,19.60
2017-06-21T08:57:32.436Z,19.50
2017-06-21T09:00:01.738Z,19.70
2017-06-21T09:02:30.826Z,19.70
2017-06-21T09:04:59.211Z,19.70
2017-06-21T09:07:28.499Z,19.70
2017-06-21T09:09:57.570Z,20.10
2017-06-21T09:12:25.981Z,20.00
2017-06-21T09:14:55.034Z,20.40
2017-06-21T09:17:23.455Z,20.30
2017-06-21T09:19:51.838Z,20.30
2017-06-21T09:22:20.352Z,20.30
2017-06-21T09:24:48.795Z,20.30
2017-06-21T09:27:17.162Z,20.20
2017-06-21T09:29:45.507Z,20.00
2017-06-21T09:32:13.887Z,19.90
2017-06-21T09:34:42.289Z,20.00
2017-06-21T09:37:11.492Z,20.10
2017-06-21T09:39:39.830Z,20.10
2017-06-21T09:42:09.027Z,20.30
2017-06-21T09:44:37.748Z,20.20
2017-06-21T09:47:06.130Z,20.50
2017-06-21T09:49:35.284Z,20.50
2017-06-21T09:52:03.644Z,20.50
2017-06-21T09:54:32.143Z,20.60
2017-06-21T09:57:00.686Z,20.60
2017-06-21T09:59:29.159Z,20.60
2017-06-21T10:01:58.245Z,21.10
2017-06-21T10:04:27.342Z,21.30
2017-06-21T10:06:57.286Z,21.40
2017-06-21T10:09:25.818Z,21.40
2017-06-21T10:11:54.931Z,21.60
2017-06-21T10:14:23.399Z,21.60
2017-06-21T10:16:52.476Z,22.00
2017-06-21T10:19:20.790Z,21.90
2017-06-21T10:21:49.103Z,21.90
2017-06-21T10:24:17.647Z,21.90
2017-06-21T10:26:46.708Z,21.90
2017-06-21T10:29:15.020Z,21.80
2017-06-21T10:31:43.492Z,22.00
2017-06-21T10:34:11.877Z,22.00
2017-06-21T10:36:40.939Z,21.80
2017-06-21T10:39:09.486Z,21.70
2017-06-21T10:41:40.605Z,21.70
2017-06-21T10:44:08.932Z,21.70
2017-06-21T10:46:37.445Z,21.80
2017-06-21T10:49:06.011Z,21.80
2017-06-21T10:51:34.402Z,21.90
2017-06-21T10:54:03.494Z,22.00
2017-06-21T10:56:31.873Z,22.00
2017-06-21T10:59:01.371Z,22.00
2017-06-21T11:01:30.444Z,22.00
2017-06-21T11:03:58.761Z,22.00
2017-06-21T11:06:27.902Z,22.10
2017-06-21T11:08:56.214Z,22.00
2017-06-21T11:11:25.399Z,22.30
2017-06-21T11:13:53.813Z,22.30
2017-06-21T11:16:22.116Z,22.40
2017-06-21T11:18:50.453Z,22.70
2017-06-21T11:21:19.644Z,22.90
2017-06-21T11:23:47.949Z,22.90
2017-06-21T11:26:16.260Z,23.10
2017-06-21T11:28:44.786Z,23.20
2017-06-21T11:31:13.093Z,23.50
2017-06-21T11:33:41.959Z,23.70
2017-06-21T11:36:11.042Z,24.20
2017-06-21T11:38:40.150Z,24.40
2017-06-21T11:41:08.535Z,24.30
2017-06-21T11:43:36.998Z,24.30
2017-06-21T11:46:06.193Z,24.60
2017-06-21T11:48:35.609Z,24.70
2017-06-21T11:51:03.931Z,24.70
2017-06-21T11:53:32.251Z,24.60
2017-06-21T11:56:01.319Z,24.30
2017-06-21T11:58:29.614Z,24.30
2017-06-21T12:00:58.000Z,24.20
2017-06-21T12:03:27.064Z,24.10
2017-06-21T12:05:55.477Z,24.00
2017-06-21T12:08:24.539Z,24.00
2017-06-21T12:10:53.875Z,24.10
2017-06-21T12:13:22.930Z,24.10
2017-06-21T12:15:51.330Z,24.10
2017-06-21T12:18:20.431Z,24.00
2017-06-21T12:20:48.815Z,23.90
2017-06-21T12:23:18.278Z,24.20
2017-06-21T12:25:46.578Z,24.20
2017-06-21T12:28:16.486Z,24.70
2017-06-21T12:30:45.608Z,24.80
2017-06-21T12:33:14.853Z,24.70
2017-06-21T12:35:43.146Z,24.70
2017-06-21T12:38:11.650Z,24.60
2017-06-21T12:40:40.965Z,24.70
2017-06-21T12:43:10.042Z,24.90
2017-06-21T12:45:38.332Z,24.90
2017-06-21T12:48:06.666Z,25.10
2017-06-21T12:50:34.950Z,25.20
2017-06-21T12:53:03.278Z,25.30
2017-06-21T12:55:31.574Z,25.40
2017-06-21T12:57:59.905Z,25.20
2017-06-21T13:00:28.963Z,24.40
2017-06-21T13:02:57.479Z,24.30
2017-06-21T13:05:26.559Z,24.40
2017-06-21T13:07:55.995Z,24.30
2017-06-21T13:10:25.289Z,24.30
2017-06-21T13:12:54.362Z,24.20
2017-06-21T13:15:22.670Z,24.10
2017-06-21T13:17:51.018Z,24.10
2017-06-21T13:20:19.322Z,24.10
2017-06-21T13:22:47.632Z,24.20
2017-06-21T13:25:16.043Z,24.20
2017-06-21T13:27:45.114Z,24.20
2017-06-21T13:30:13.450Z,24.20
2017-06-21T13:32:41.917Z,24.20
2017-06-21T13:35:10.330Z,24.30
2017-06-21T13:37:38.663Z,24.40
2017-06-21T13:40:06.948Z,24.50
2017-06-21T13:42:35.431Z,24.50
2017-06-21T13:45:04.491Z,24.40
2017-06-21T13:47:33.706Z,24.30
2017-06-21T13:50:02.838Z,24.40
2017-06-21T13:52:31.358Z,24.40
2017-06-21T13:55:00.470Z,24.50
2017-06-21T13:57:29.682Z,24.70
2017-06-21T13:59:58.175Z,24.60
2017-06-21T14:02:27.233Z,24.90
2017-06-21T14:04:55.529Z,24.90
2017-06-21T14:07:24.640Z,24.80
2017-06-21T14:09:52.953Z,24.70
2017-06-21T14:12:21.275Z,24.70
2017-06-21T14:14:51.274Z,24.40
2017-06-21T14:17:19.775Z,24.40
2017-06-21T14:19:48.075Z,24.50
2017-06-21T14:22:16.374Z,24.40
2017-06-21T14:24:44.838Z,24.50
2017-06-21T14:27:13.161Z,24.40
2017-06-21T14:29:41.458Z,24.40
2017-06-21T14:32:09.944Z,24.50
2017-06-21T14:34:38.228Z,24.60
2017-06-21T14:37:07.326Z,24.70
2017-06-21T14:39:35.703Z,24.60
2017-06-21T14:42:04.114Z,24.70
2017-06-21T14:44:32.438Z,24.80
2017-06-21T14:47:00.930Z,25.00
2017-06-21T14:49:30.335Z,25.20
2017-06-21T14:51:58.722Z,25.20
2017-06-21T14:54:26.992Z,25.60
2017-06-21T14:56:56.178Z,25.60
2017-06-21T14:59:25.504Z,25.80
2017-06-21T15:01:53.830Z,25.70
2017-06-21T15:04:22.144Z,26.10
2017-06-21T15:06:51.839Z,27.10
2017-06-21T15:09:20.934Z,27.40
2017-06-21T15:11:49.275Z,27.40
2017-06-21T15:14:17.591Z,28.00
2017-06-21T15:16:46.893Z,30.10
2017-06-21T15:19:15.986Z,30.50
2017-06-21T15:21:45.054Z,30.90
2017-06-21T15:24:13.391Z,30.80
2017-06-21T15:26:41.690Z,31.30
2017-06-21T15:29:10.039Z,31.50
2017-06-21T15:31:38.388Z,31.70
2017-06-21T15:34:06.866Z,32.10
2017-06-21T15:36:35.258Z,33.30
2017-06-21T15:39:03.903Z,34.20
2017-06-21T15:41:33.033Z,35.60
2017-06-21T15:44:01.410Z,35.50
2017-06-21T15:46:30.698Z,37.20
2017-06-21T15:48:59.800Z,37.20
2017-06-21T15:51:29.005Z,36.50
2017-06-21T15:53:58.194Z,36.40
2017-06-21T15:56:26.506Z,36.30
2017-06-21T15:58:54.851Z,36.50
2017-06-21T16:01:23.191Z,35.80
2017-06-21T16:03:51.711Z,35.50
2017-06-21T16:06:20.091Z,36.20
2017-06-21T16:08:48.429Z,36.50
2017-06-21T16:11:16.740Z,36.10
2017-06-21T16:13:45.833Z,36.10
2017-06-21T16:16:14.213Z,36.10
2017-06-21T16:18:42.549Z,35.80
2017-06-21T16:21:11.271Z,36.10
2017-06-21T16:23:39.658Z,36.40
2017-06-21T16:26:07.994Z,37.20
2017-06-21T16:28:36.406Z,38.00
2017-06-21T16:31:04.786Z,38.40
2017-06-21T16:33:33.863Z,38.50
2017-06-21T16:36:02.254Z,38.40
2017-06-21T16:38:31.350Z,39.70
2017-06-21T16:41:00.447Z,40.60
2017-06-21T16:43:28.936Z,40.50
2017-06-21T16:45:58.029Z,41.00
2017-06-21T16:48:26.365Z,41.00
2017-06-21T16:50:54.687Z,40.90
2017-06-21T16:53:22.992Z,41.10
2017-06-21T16:55:51.444Z,41.30
2017-06-21T16:58:20.533Z,41.40
2017-06-21T17:00:49.116Z,41.40
2017-06-21T17:03:18.182Z,41.60
2017-06-21T17:05:46.582Z,41.60
2017-06-21T17:08:15.675Z,41.30
2017-06-21T17:10:44.134Z,41.20
2017-06-21T17:13:12.547Z,41.50
2017-06-21T17:15:40.920Z,41.80
2017-06-21T17:18:09.266Z,42.00
2017-06-21T17:20:37.561Z,41.90
2017-06-21T17:23:06.787Z,42.10
2017-06-21T17:25:35.097Z,42.00
2017-06-21T17:28:03.434Z,41.70
2017-06-21T17:30:31.767Z,41.60
2017-06-21T17:33:01.054Z,39.70
2017-06-21T17:35:29.614Z,39.60
2017-06-21T17:37:57.945Z,39.20
2017-06-21T17:40:26.442Z,38.90
2017-06-21T17:42:54.772Z,37.90
2017-06-21T17:45:23.292Z,37.20
2017-06-21T17:47:51.706Z,36.70
2017-06-21T17:50:20.151Z,36.40
2017-06-21T17:52:49.233Z,36.70
2017-06-21T17:55:17.514Z,36.70
2017-06-21T17:57:47.131Z,37.10
2017-06-21T18:00:16.224Z,36.80
2017-06-21T18:02:45.517Z,36.70
2017-06-21T18:05:14.587Z,35.40
2017-06-21T18:07:42.890Z,35.30
2017-06-21T18:10:11.374Z,34.70
2017-06-21T18:12:39.707Z,34.10
2017-06-21T18:15:08.338Z,33.40
2017-06-21T18:17:37.435Z,32.10
2017-06-21T18:20:05.812Z,32.00
2017-06-21T18:22:34.914Z,30.90
2017-06-21T18:25:03.183Z,30.90
2017-06-21T18:27:32.270Z,29.90
2017-06-21T18:30:01.340Z,29.60
2017-06-21T18:32:29.738Z,29.50
2017-06-21T18:34:58.125Z,29.10
2017-06-21T18:37:26.607Z,28.40
2017-06-21T18:39:56.150Z,27.80
2017-06-21T18:42:24.486Z,27.70
2017-06-21T18:44:52.847Z,27.50
2017-06-21T18:47:21.142Z,27.30
2017-06-21T18:49:50.152Z,27.10
2017-06-21T18:52:19.188Z,26.80
2017-06-21T18:54:48.318Z,26.60
2017-06-21T18:57:16.663Z,26.50
2017-06-21T18:59:45.577Z,26.40
2017-06-21T19:02:15.697Z,26.20
2017-06-21T19:04:44.247Z,26.00
2017-06-21T19:07:13.660Z,25.80
2017-06-21T19:09:42.373Z,25.60
2017-06-21T19:12:10.890Z,25.40
2017-06-21T19:14:40.106Z,25.20
2017-06-21T19:17:08.572Z,25.10
2017-06-21T19:19:37.020Z,25.00
2017-06-21T19:22:06.142Z,24.80
2017-06-21T19:24:34.614Z,24.70
2017-06-21T19:27:03.084Z,24.70
2017-06-21T19:29:31.564Z,24.50
2017-06-21T19:31:59.881Z,24.40
2017-06-21T19:34:28.327Z,24.20
2017-06-21T19:36:56.647Z,24.10
2017-06-21T19:39:25.101Z,24.00
2017-06-21T19:41:53.419Z,23.80
2017-06-21T19:44:21.833Z,23.70
2017-06-21T19:46:50.320Z,23.60
2017-06-21T19:49:19.385Z,23.40
2017-06-21T19:51:48.595Z,23.20
2017-06-21T19:54:17.667Z,23.10
2017-06-21T19:56:47.016Z,23.00
2017-06-21T19:59:15.299Z,23.00
2017-06-21T20:01:43.691Z,22.90
2017-06-21T20:04:12.023Z,22.80
2017-06-21T20:06:40.359Z,22.70
2017-06-21T20:09:08.787Z,22.70
2017-06-21T20:11:37.090Z,22.60
2017-06-21T20:14:05.609Z,22.50
2017-06-21T20:16:34.107Z,22.40
2017-06-21T20:19:03.211Z,22.20
2017-06-21T20:21:31.700Z,22.20
2017-06-21T20:24:00.019Z,22.20
2017-06-21T20:26:28.351Z,22.10
2017-06-21T20:28:58.333Z,22.00
2017-06-21T20:31:26.660Z,21.90
2017-06-21T20:33:55.731Z,21.90
2017-06-21T20:36:24.035Z,21.90
2017-06-21T20:38:53.141Z,21.90
2017-06-21T20:41:21.467Z,21.80
2017-06-21T20:43:49.776Z,21.80
2017-06-21T20:46:18.846Z,21.60
2017-06-21T20:48:47.766Z,21.60
2017-06-21T20:51:16.160Z,21.60
2017-06-21T20:53:44.475Z,21.60
2017-06-21T20:56:12.817Z,21.50
2017-06-21T20:58:41.142Z,21.50
2017-06-21T21:01:10.700Z,21.50
2017-06-21T21:03:39.160Z,21.40
2017-06-21T21:06:07.527Z,21.30
2017-06-21T21:08:35.847Z,21.30
2017-06-21T21:11:05.178Z,21.20
2017-06-21T21:13:33.479Z,21.20
2017-06-21T21:16:01.795Z,21.20
2017-06-21T21:18:30.211Z,21.20
2017-06-21T21:20:58.687Z,21.10
2017-06-21T21:23:28.614Z,21.00
2017-06-21T21:25:56.891Z,21.00
2017-06-21T21:28:25.991Z,21.00
2017-06-21T21:30:55.070Z,20.90
2017-06-21T21:33:23.559Z,20.90
2017-06-21T21:35:52.659Z,20.80
2017-06-21T21:38:20.996Z,20.80
2017-06-21T21:40:49.325Z,20.80
2017-06-21T21:43:17.639Z,20.70
2017-06-21T21:45:46.279Z,20.70
2017-06-21T21:48:17.522Z,20.70
2017-06-21T21:50:45.968Z,20.60
2017-06-21T21:53:14.283Z,20.60
2017-06-21T21:55:42.619Z,20.60
2017-06-21T21:58:11.098Z,20.50
2017-06-21T22:00:39.517Z,20.50
2017-06-21T22:03:08.608Z,20.40
2017-06-21T22:05:37.809Z,20.40
2017-06-21T22:08:06.176Z,20.30
2017-06-21T22:10:34.661Z,20.30
2017-06-21T22:13:03.766Z,20.20
2017-06-21T22:15:32.823Z,20.20
2017-06-21T22:18:01.137Z,20.10
2017-06-21T22:20:29.529Z,20.10
2017-06-21T22:22:57.997Z,20.10
2017-06-21T22:25:27.182Z,20.00
2017-06-21T22:27:56.592Z,20.00
2017-06-21T22:30:25.656Z,19.90
2017-06-21T22:32:54.776Z,19.90
2017-06-21T22:35:23.077Z,19.80
2017-06-21T22:37:51.366Z,19.80
2017-06-21T22:40:19.810Z,19.80
2017-06-21T22:42:48.136Z,19.80
2017-06-21T22:45:16.683Z,19.70
2017-06-21T22:47:44.995Z,19.60
2017-06-21T22:50:13.299Z,19.60
2017-06-21T22:52:41.639Z,19.50
2017-06-21T22:55:09.924Z,19.50
2017-06-21T22:57:38.287Z,19.50
2017-06-21T23:00:06.633Z,19.50
2017-06-21T23:02:35.711Z,19.40
2017-06-21T23:05:04.091Z,19.30
2017-06-21T23:07:33.210Z,19.40
2017-06-21T23:10:01.536Z,19.30
2017-06-21T23:12:29.866Z,19.30
2017-06-21T23:14:58.919Z,19.30
2017-06-21T23:17:27.534Z,19.20
2017-06-21T23:19:56.598Z,19.30
2017-06-21T23:22:24.998Z,19.20
2017-06-21T23:24:53.303Z,19.20
2017-06-21T23:27:21.619Z,19.20
2017-06-21T23:29:49.947Z,19.20
2017-06-21T23:32:18.254Z,19.20
2017-06-21T23:34:46.590Z,19.20
2017-06-21T23:37:14.936Z,19.10
2017-06-21T23:39:43.449Z,19.10
2017-06-21T23:42:11.754Z,19.10
2017-06-21T23:44:40.302Z,19.00
2017-06-21T23:47:08.788Z,19.00
2017-06-21T23:49:37.266Z,19.00
2017-06-21T23:52:06.459Z,19.00
2017-06-21T23:54:34.773Z,18.90
2017-06-21T23:57:03.204Z,19.00
2017-06-21T23:59:32.278Z,19.00
